Stations météo

réclame
Mon MeteoGroup
Glen Ogle, Grande-Bretagne (3148): Température de l'air & dewpoint: 17.05.2018 21:00:00 - 23.05.2018 21:00:00 (BST)Glen Ogle, Grande-Bretagne (3148): Vitesse du vent & gusts: 17.05.2018 21:00:00 - 23.05.2018 21:00:00 (BST)Glen Ogle, Grande-Bretagne (3148): Direction du vent: 17.05.2018 21:00:00 - 23.05.2018 21:00:00 (BST)
Date & Time tt [°C] td [°C] ff [km/h] ff [knt] fx [km/h] fx [knt] dd
23.05.2018 21:00:00 9,5 6,2 22 12 - - ESE
23.05.2018 20:00:00 12,2 3,9 15 8 - - ESE
23.05.2018 19:00:00 13,0 5,0 18 10 - - SSE
23.05.2018 18:00:00 12,8 4,8 18 10 - - SSE
23.05.2018 17:00:00 13,1 4,6 18 10 - - SSE
23.05.2018 16:00:00 12,5 4,1 15 8 - - SSE
23.05.2018 15:00:00 11,4 4,0 13 7 - - S
23.05.2018 14:00:00 10,2 3,9 13 7 - - SSE
23.05.2018 13:00:00 7,6 3,9 16 9 - - SSE
23.05.2018 12:00:00 6,7 4,0 11 6 - - S
23.05.2018 11:00:00 6,3 4,0 9 5 - - S
23.05.2018 10:00:00 6,0 4,4 11 6 - - SSE
23.05.2018 09:00:00 5,4 4,4 8 4 - - ESE
23.05.2018 08:00:00 5,0 4,8 8 4 - - ESE
23.05.2018 07:00:00 5,1 5,1 8 4 - - SE
23.05.2018 06:00:00 5,0 5,0 11 6 - - ESE
23.05.2018 05:00:00 5,0 5,0 11 6 - - E
23.05.2018 04:00:00 5,2 5,2 8 4 - - SE
23.05.2018 03:00:00 5,1 5,1 13 7 - - ESE
23.05.2018 02:00:00 5,0 5,0 22 12 - - ESE
23.05.2018 01:00:00 5,3 5,3 22 12 - - ESE
23.05.2018 00:00:00 5,7 5,6 22 12 - - ESE
22.05.2018 23:00:00 6,2 6,1 22 12 - - ESE
22.05.2018 22:00:00 6,7 6,3 31 17 - - ESE
22.05.2018 21:00:00 7,5 6,7 28 15 - - ESE
22.05.2018 20:00:00 8,6 6,8 22 12 - - ESE
22.05.2018 19:00:00 9,6 6,5 22 12 - - ESE
22.05.2018 18:00:00 9,9 3,8 13 7 - - S
22.05.2018 17:00:00 10,2 4,6 11 6 - - SSE
22.05.2018 16:00:00 9,8 4,0 9 5 - - ESE
22.05.2018 15:00:00 9,3 3,9 8 4 - - E
22.05.2018 14:00:00 8,8 3,8 5 3 - - SE
22.05.2018 13:00:00 8,1 3,2 9 5 - - NE
22.05.2018 12:00:00 7,3 3,6 4 2 - - NW
22.05.2018 11:00:00 6,8 2,9 11 6 - - NE
22.05.2018 10:00:00 5,6 3,6 13 7 - - ENE
22.05.2018 09:00:00 4,8 3,6 22 12 - - ENE
22.05.2018 08:00:00 4,1 3,9 26 14 - - NE
22.05.2018 07:00:00 4,2 3,8 28 15 - - NE
22.05.2018 06:00:00 4,5 4,0 31 17 - - NE
22.05.2018 05:00:00 4,3 4,0 28 15 - - ENE
22.05.2018 04:00:00 4,3 4,0 26 14 - - NE
22.05.2018 03:00:00 4,6 4,5 28 15 - - ENE
22.05.2018 02:00:00 4,7 4,4 26 14 - - NE
22.05.2018 01:00:00 5,2 4,6 26 14 - - NE
22.05.2018 00:00:00 6,3 5,0 26 14 - - NE
21.05.2018 23:00:00 6,7 5,8 26 14 - - NE
21.05.2018 22:00:00 6,9 6,1 16 9 - - N
21.05.2018 21:00:00 7,3 6,6 16 9 - - NW
21.05.2018 20:00:00 7,5 7,2 16 9 - - WNW
21.05.2018 19:00:00 8,6 7,3 5 3 - - WNW
21.05.2018 18:00:00 10,0 7,7 15 8 - - W
21.05.2018 17:00:00 11,1 7,6 9 5 - - W
21.05.2018 16:00:00 11,9 6,8 24 13 48 26 S
21.05.2018 15:00:00 11,9 6,5 28 15 50 27 S
21.05.2018 14:00:00 11,4 7,2 26 14 54 29 SSW
21.05.2018 13:00:00 11,1 6,9 22 12 - - S
21.05.2018 12:00:00 9,9 7,1 29 16 50 27 S
21.05.2018 11:00:00 9,4 7,2 31 17 - - S
21.05.2018 10:00:00 9,1 6,3 34 18 - - S
21.05.2018 09:00:00 8,8 5,3 26 14 - - SSE
21.05.2018 08:00:00 8,4 4,9 21 11 - - S
21.05.2018 07:00:00 7,7 5,7 18 10 - - SSE
21.05.2018 06:00:00 7,7 6,2 22 12 - - SE
21.05.2018 05:00:00 7,7 6,6 21 11 - - SSE
21.05.2018 04:00:00 7,9 7,0 21 11 - - SSE
21.05.2018 03:00:00 8,1 6,8 21 11 - - S
21.05.2018 02:00:00 8,2 6,8 24 13 - - S
21.05.2018 01:00:00 9,1 6,5 24 13 - - S
21.05.2018 00:00:00 9,2 6,9 22 12 - - SSE
20.05.2018 23:00:00 9,7 6,7 24 13 - - SSE
20.05.2018 22:00:00 9,7 6,5 35 19 50 27 S
20.05.2018 21:00:00 9,7 6,5 26 14 - - SSE
20.05.2018 20:00:00 9,6 6,6 29 16 52 28 SSE
20.05.2018 19:00:00 9,5 6,9 22 12 - - S
20.05.2018 18:00:00 9,2 7,9 28 15 68 37 S
20.05.2018 17:00:00 9,4 8,3 44 24 74 40 SSE
20.05.2018 16:00:00 10,0 9,0 42 23 70 38 SSE
20.05.2018 15:00:00 9,9 8,4 42 23 68 37 SSE
20.05.2018 14:00:00 10,2 6,7 44 24 67 36 S
20.05.2018 13:00:00 9,6 7,7 41 22 61 33 SSE
20.05.2018 12:00:00 9,2 7,1 37 20 70 38 S
20.05.2018 11:00:00 8,6 6,5 31 17 52 28 SSE
20.05.2018 10:00:00 7,4 6,4 22 12 - - S
20.05.2018 09:00:00 7,2 5,9 31 17 48 26 SSE
20.05.2018 08:00:00 7,6 5,6 26 14 - - S
20.05.2018 07:00:00 7,9 5,4 28 15 - - S
20.05.2018 06:00:00 7,8 5,4 28 15 - - S
20.05.2018 05:00:00 8,1 5,6 29 16 65 35 S
20.05.2018 04:00:00 8,5 5,5 35 19 54 29 S
20.05.2018 03:00:00 9,0 5,4 39 21 63 34 S
20.05.2018 02:00:00 9,0 5,5 42 23 65 35 S
20.05.2018 01:00:00 9,0 5,6 41 22 68 37 S
20.05.2018 00:00:00 9,3 5,4 41 22 68 37 S
19.05.2018 23:00:00 9,7 4,8 46 25 67 36 S
19.05.2018 22:00:00 10,2 3,5 39 21 61 33 S
19.05.2018 21:00:00 11,0 4,1 29 16 54 29 SSE
19.05.2018 20:00:00 11,5 4,8 37 20 59 32 S
19.05.2018 19:00:00 12,1 4,3 54 29 70 38 S
19.05.2018 18:00:00 12,6 3,2 55 30 68 37 S
19.05.2018 17:00:00 13,6 2,9 35 19 63 34 S
19.05.2018 16:00:00 14,0 3,6 35 19 63 34 S
19.05.2018 15:00:00 15,2 5,2 34 18 57 31 S
19.05.2018 14:00:00 13,8 3,6 39 21 55 30 S
19.05.2018 13:00:00 12,6 3,2 34 18 52 28 SSE
19.05.2018 12:00:00 11,8 2,4 31 17 46 25 SSE
19.05.2018 11:00:00 11,3 1,6 21 11 46 25 SSE
19.05.2018 10:00:00 9,7 2,7 31 17 - - S
19.05.2018 09:00:00 8,9 3,3 22 12 - - S
19.05.2018 08:00:00 8,7 3,7 16 9 - - S
19.05.2018 07:00:00 7,9 4,5 18 10 - - SSE
19.05.2018 06:00:00 8,3 5,4 18 10 - - SSE
19.05.2018 05:00:00 9,3 5,6 18 10 - - S
19.05.2018 04:00:00 8,6 6,4 4 2 - - SSE
19.05.2018 03:00:00 8,3 6,0 4 2 - - SE
19.05.2018 02:00:00 9,2 6,3 5 3 - - SSW
19.05.2018 01:00:00 9,0 6,7 5 3 - - SW
19.05.2018 00:00:00 9,2 6,8 4 2 - - WSW
18.05.2018 23:00:00 9,4 6,3 4 2 - - W
18.05.2018 22:00:00 9,8 6,3 5 3 - - SSE
18.05.2018 21:00:00 10,5 5,1 15 8 - - W
18.05.2018 20:00:00 12,2 3,2 13 7 - - WSW
18.05.2018 19:00:00 12,0 5,0 13 7 - - W
18.05.2018 18:00:00 11,7 4,1 18 10 - - S
18.05.2018 17:00:00 12,4 1,3 21 11 - - WSW
18.05.2018 16:00:00 12,8 1,1 18 10 - - SW
18.05.2018 15:00:00 12,3 1,7 15 8 - - WSW
18.05.2018 14:00:00 10,8 0,1 13 7 - - SW
18.05.2018 13:00:00 10,3 -0,2 16 9 - - S
18.05.2018 12:00:00 9,7 -1,1 15 8 - - SW
18.05.2018 11:00:00 8,7 -1,1 13 7 - - S
18.05.2018 10:00:00 8,2 -1,1 9 5 - - S
18.05.2018 09:00:00 7,4 0,9 18 10 - - SSE
18.05.2018 08:00:00 6,8 0,2 22 12 - - SSE
18.05.2018 07:00:00 6,5 0,9 15 8 - - SSE
18.05.2018 06:00:00 5,4 1,8 5 3 - - SSE
18.05.2018 05:00:00 5,9 2,1 11 6 - - SSE
18.05.2018 04:00:00 5,8 1,9 8 4 - - ESE
18.05.2018 03:00:00 5,2 1,8 4 2 - - E
18.05.2018 02:00:00 5,5 1,5 15 8 - - ESE
18.05.2018 01:00:00 5,2 0,6 13 7 - - SE
18.05.2018 00:00:00 6,4 -0,3 22 12 - - ESE
17.05.2018 23:00:00 7,3 -0,7 24 13 - - ESE
17.05.2018 22:00:00 8,2 1,6 29 16 - - ESE
17.05.2018 21:00:00 10,0 2,9 21 11 - - SE

tt = Température de l'air
td = dewpoint
ff = Vitesse du vent
fx = gusts
dd = Direction du vent

stations d'obs. à proximité